Tierra Del Sol (445) Station Data

Red Flag Warning: No
Fire Weather Zone: 258
SDGE Region: Mountain Empire
Lat/Lon: 32.645/-116.347

Observations

Time Wind Speed/Gust Temp(F) RH Fuel Moist Fuel Temp(F) Dewpt(F) Tmax(F) Tmin(F) Accum Precip 10-min Precip SL Press(mb)
4/26 2:50am 128 3 G 5 51° 58% - - 36° 54.9° 41.8° - - 877.0
4/26 2:40am 144 0 G 1 48° 72% - - 39° 49.5° 41.8° - - 880.0
4/26 2:30am 127 3 G 5 45° 85% - - 41° 49.5° 41.8° - - 887.0
4/26 2:20am 106 2 G 4 42° 100% - - 42° 47.2° 41.8° - - 891.0
4/26 2:10am 79 2 G 5 44° 93% - - 42° 47.2° 42.4° - - 889.0
4/26 2:00am 153 2 G 4 46° 90% - - 43° 47.2° 42.5° - - 889.0
4/26 1:50am 122 3 G 5 44° 100% - - 44° 46.6° 42.5° - - 892.0
4/26 1:40am 104 0 G 2 44° 95% - - 42° 46.6° 42.5° - - 890.0
4/26 1:30am 127 2 G 6 45° 94% - - 44° 46.6° 42.5° - - 891.0
4/26 1:20am 110 3 G 5 44° 100% - - 44° 45.3° 42.5° - - 893.0
4/26 1:10am 149 1 G 2 45° 100% - - 45° 45.3° 42.5° - - 894.0
4/26 1:00am 124 2 G 4 43° 100% - - 43° 44.8° 42.5° - - 894.0
4/26 12:50am 115 1 G 2 43° 100% - - 43° 44.4° 42.6° - - 894.0
4/26 12:40am 94 1 G 3 43° 100% - - 43° 44.4° 42.6° - - 894.0
4/26 12:30am 108 2 G 4 43° 100% - - 43° 44.4° 42.6° - - 894.0
4/26 12:20am 90 4 G 5 43° 100% - - 43° 44.4° 42.8° - - 894.0
4/26 12:10am 117 2 G 5 44° 100% - - 44° 44.4° 43° - - 894.0
4/26 12:00am 136 2 G 3 44° 100% - - 44° 62.2° 43° - - 894.0
4/25 11:50pm 136 3 G 5 44° 100% - - 44° 62.2° 43° - - 894.0
4/25 11:40pm 123 3 G 4 44° 100% - - 44° 62.2° 43° - - 894.0
4/25 11:30pm 191 1 G 2 44° 100% - - 44° 62.2° 43° - - 894.0
4/25 11:20pm 152 1 G 3 43° 100% - - 43° 62.2° 43° - - 894.0
4/25 11:10pm 158 1 G 3 44° 100% - - 44° 62.2° 43.3° - - 893.0
4/25 11:00pm 127 1 G 3 45° 100% - - 45° 62.2° 43.9° - - 894.0
4/25 10:50pm 116 1 G 4 45° 100% - - 45° 62.2° 44° - - 894.0
4/25 10:40pm 131 1 G 3 45° 100% - - 45° 62.2° 44.8° - - 894.0
4/25 10:30pm 96 2 G 4 46° 100% - - 46° 62.2° 45.2° - - 894.0
4/25 10:20pm 303 1 G 2 46° 100% - - 46° 62.2° 45.6° - - 893.0
4/25 10:10pm 166 1 G 4 46° 100% - - 46° 62.2° 46° - - 893.0
4/25 10:00pm 213 2 G 4 47° 100% - - 47° 62.2° 46° - - 893.0
4/25 9:50pm 221 3 G 6 47° 100% - - 47° 62.2° 46° - - 893.0
4/25 9:40pm 239 2 G 4 47° 100% - - 48° 62.2° 46° - - 893.0
4/25 9:30pm 253 3 G 7 48° 100% - - 48° 62.2° 46° - - 893.0
4/25 9:20pm 254 3 G 6 48° 100% - - 48° 62.2° 46° - - 894.0
4/25 9:10pm 252 4 G 8 48° 100% - - 48° 62.2° 46° - - 894.0
4/25 9:00pm 249 3 G 6 49° 100% - - 49° 62.2° 46° - - 893.0
4/25 8:50pm 253 4 G 7 49° 100% - - 49° 62.2° 46° - - 893.0
4/25 8:40pm 258 4 G 8 49° 99% - - 49° 62.2° 46° - - 893.0
4/25 8:30pm 250 4 G 9 50° 98% - - 49° 62.2° 46° - - 893.0
4/25 8:20pm 261 4 G 8 50° 99% - - 50° 62.2° 46° - - 893.0
4/25 8:10pm 255 5 G 9 50° 99% - - 50° 62.2° 46° - - 893.0
4/25 8:00pm 258 5 G 10 50° 98% - - 50° 62.2° 46° - - 893.0
4/25 7:50pm 254 6 G 10 51° 96% - - 50° 62.2° 46° - - 892.0
4/25 7:40pm 252 7 G 11 51° 92% - - 49° 62.2° 46° - - 890.0
4/25 7:30pm 266 7 G 13 51° 89% - - 48° 62.2° 46° - - 889.0
4/25 7:20pm 263 7 G 13 52° 88% - - 48° 62.2° 46° - - 889.0
4/25 7:10pm 260 7 G 11 52° 86% - - 48° 62.2° 46° - - 888.0
4/25 7:00pm 263 7 G 12 52° 84% - - 48° 62.2° 46° - - 887.0
4/25 6:50pm 258 7 G 14 53° 81% - - 47° 62.2° 46° - - 886.0
4/25 6:40pm 249 7 G 13 53° 79% - - 47° 62.2° 46° - - 886.0
4/25 6:30pm 257 7 G 16 54° 78% - - 47° 62.2° 46° - - 885.0
4/25 6:20pm 263 9 G 17 54° 77% - - 47° 62.2° 46° - - 885.0
4/25 6:10pm 255 9 G 17 54° 76% - - 47° 62.2° 46° - - 885.0
4/25 6:00pm 267 9 G 18 54° 75% - - 47° 62.2° 46° - - 884.0
4/25 5:50pm 266 10 G 20 55° 73% - - 46° 62.2° 46° - - 884.0
4/25 5:40pm 269 9 G 18 55° 72% - - 46° 62.2° 46° - - 883.0
4/25 5:30pm 261 8 G 18 56° 70% - - 46° 62.2° 46° - - 882.0
4/25 5:20pm 254 9 G 17 56° 68% - - 46° 62.2° 46° - - 882.0
4/25 5:10pm 260 9 G 17 57° 68% - - 46° 62.2° 46° - - 882.0
4/25 5:00pm 262 9 G 18 57° 67% - - 46° 62.2° 46° - - 882.0
4/25 4:50pm 270 8 G 15 57° 65% - - 46° 62.2° 46° - - 881.0
4/25 4:40pm 265 9 G 17 58° 63% - - 45° 62.2° 46° - - 880.0
4/25 4:30pm 276 11 G 21 58° 63% - - 46° 62.2° 46° - - 880.0
4/25 4:20pm 264 9 G 20 59° 61% - - 45° 62.2° 46° - - 880.0
4/25 4:10pm 259 10 G 18 59° 60% - - 45° 62.2° 46° - - 879.0
4/25 4:00pm 265 11 G 20 59° 60% - - 45° 62.2° 46° - - 879.0
4/25 3:50pm 265 10 G 19 59° 60% - - 45° 62.2° 46° - - 879.0
4/25 3:40pm 266 10 G 18 59° 58% - - 44° 62.2° 46° - - 878.0
4/25 3:30pm 262 10 G 22 59° 57% - - 44° 62.2° 46° - - 878.0
4/25 3:20pm 253 10 G 17 59° 57% - - 44° 62.2° 46° - - 878.0
4/25 3:10pm 261 11 G 22 59° 56% - - 44° 62.2° 46° - - 878.0
4/25 3:00pm 265 11 G 21 60° 54% - - 43° 62.2° 46° - - 877.0
4/25 2:50pm 273 10 G 18 61° 52% - - 43° 62.2° 46° - - 876.0
4/25 2:40pm 277 11 G 20 60° 53% - - 43° 62.2° 46° - - 877.0
4/25 2:30pm 262 13 G 27 60° 53% - - 43° 62.2° 46° - - 877.0
4/25 2:20pm 271 12 G 24 60° 51% - - 42° 62.2° 46° - - 876.0
4/25 2:10pm 276 12 G 22 60° 51% - - 42° 62.2° 46° - - 876.0
4/25 2:00pm 275 11 G 19 61° 50% - - 42° 62.2° 46° - - 876.0
4/25 1:50pm 283 13 G 22 61° 50% - - 42° 62.2° 46° - - 876.0
4/25 1:40pm 269 11 G 21 61° 50% - - 42° 62.2° 46° - - 876.0
4/25 1:30pm 289 10 G 19 60° 51% - - 42° 60.8° 46° - - 876.0
4/25 1:20pm 270 10 G 21 60° 50% - - 42° 60.8° 46° - - 876.0
4/25 1:10pm 263 10 G 16 60° 51% - - 42° 60.8° 46° - - 876.0
4/25 1:00pm 274 10 G 17 60° 51% - - 42° 60.8° 46° - - 876.0
4/25 12:50pm 271 10 G 18 59° 52% - - 42° 60.1° 46° - - 876.0
4/25 12:40pm 262 9 G 22 59° 54% - - 43° 60° 46° - - 877.0
4/25 12:30pm 267 10 G 17 58° 54% - - 42° 58.7° 46° - - 877.0
4/25 12:20pm 282 10 G 21 58° 54% - - 41° 58.7° 46° - - 876.0
4/25 12:10pm 266 11 G 21 58° 56% - - 42° 58.3° 46° - - 877.0
4/25 12:00pm 271 9 G 20 58° 56% - - 42° 58.3° 46° - - 877.0
4/25 11:50am 267 11 G 20 58° 57% - - 43° 58.1° 46° - - 878.0
4/25 11:40am 264 11 G 20 58° 57% - - 42° 58.1° 46° - - 877.0
4/25 11:30am 261 13 G 24 57° 57% - - 42° 57.7° 46° - - 878.0
4/25 11:20am 267 13 G 23 57° 59% - - 43° 57.7° 46° - - 878.0
4/25 11:10am 259 11 G 22 57° 61% - - 43° 56.9° 46° - - 879.0
4/25 11:00am 268 13 G 24 56° 62% - - 43° 56.4° 46° - - 879.0
4/25 10:50am 273 11 G 25 55° 64% - - 43° 56.2° 46° - - 880.0
4/25 10:40am 264 9 G 19 55° 65% - - 44° 56.2° 46° - - 881.0
4/25 10:30am 254 11 G 19 55° 68% - - 44° 55.1° 46° - - 881.0
4/25 10:20am 261 13 G 23 54° 70% - - 45° 54.8° 46° - - 882.0
4/25 10:10am 261 14 G 25 53° 73% - - 45° 54.5° 46° - - 883.0
4/25 10:00am 268 14 G 25 53° 74% - - 45° 53.3° 46° - - 883.0
4/25 9:50am 249 12 G 22 53° 77% - - 46° 53.1° 46° - - 885.0
4/25 9:40am 261 10 G 18 52° 81% - - 46° 52.2° 46° - - 886.0
4/25 9:30am 260 10 G 18 51° 83% - - 46° 51.7° 46° - - 887.0
4/25 9:20am 258 9 G 16 50° 86% - - 46° 51.7° 46° - - 888.0
4/25 9:10am 247 9 G 17 50° 89% - - 47° 50.1° 46° - - 889.0
4/25 9:00am 252 8 G 17 50° 88% - - 46° 50.1° 46° - - 889.0
4/25 8:50am 249 8 G 15 49° 92% - - 47° 50° 46° - - 890.0
4/25 8:40am 251 7 G 12 49° 96% - - 47° 49° 46° - - 892.0
4/25 8:30am 246 8 G 15 48° 97% - - 48° 48.6° 46° - - 892.0
4/25 8:20am 254 7 G 16 48° 98% - - 48° 48.6° 46° - - 892.0
4/25 8:10am 253 8 G 15 48° 100% - - 48° 48.3° 46° - - 893.0
4/25 8:00am 245 8 G 14 48° 100% - - 48° 47.9° 46° - - 894.0
4/25 7:50am 253 7 G 16 48° 100% - - 48° 47.8° 46° - - 894.0
4/25 7:40am 256 7 G 15 47° 100% - - 47° 47.6° 46° - - 895.0
4/25 7:30am 247 8 G 15 47° 100% - - 47° 47.3° 46° - - 895.0
4/25 7:20am 243 7 G 17 47° 100% - - 47° 47.2° 46° - - 895.0
4/25 7:10am 246 9 G 18 47° 100% - - 47° 47.2° 46° - - 895.0
4/25 7:00am 252 10 G 16 47° 100% - - 47° 47.2° 46° - - 895.0
4/25 6:50am 252 10 G 22 47° 100% - - 47° 47.2° 46° - - 895.0
4/25 6:40am 255 11 G 23 47° 100% - - 47° 47.2° 46° - - 895.0
4/25 6:30am 251 12 G 23 47° 100% - - 47° 47.2° 46° - - 895.0
4/25 6:20am 256 10 G 19 46° 100% - - 46° 47.2° 46° - - 895.0
4/25 6:10am 257 9 G 18 46° 100% - - 46° 47.2° 46° - - 895.0
4/25 6:00am 248 10 G 17 46° 100% - - 46° 47.2° 46° - - 894.0
4/25 5:50am 247 10 G 18 47° 100% - - 47° 47.2° 46° - - 894.0
4/25 5:40am 250 9 G 15 47° 100% - - 47° 47.2° 46° - - 894.0
4/25 5:30am 245 10 G 15 47° 100% - - 47° 47.2° 46° - - 894.0
4/25 5:20am 247 8 G 13 47° 100% - - 47° 46.9° 46° - - 895.0
4/25 5:10am 244 8 G 13 47° 100% - - 47° 46.9° 46° - - 895.0
4/25 5:00am 243 10 G 17 47° 100% - - 47° 46.9° 46° - - 895.0
4/25 4:50am 239 9 G 16 47° 100% - - 47° 46.9° 46° - - 895.0
4/25 4:40am 233 9 G 14 47° 100% - - 47° 46.9° 46° - - 895.0
4/25 4:30am 232 9 G 15 47° 100% - - 47° 46.9° 46° - - 895.0
4/25 4:20am 240 9 G 17 47° 100% - - 47° 46.9° 46° - - 895.0
4/25 4:10am 245 9 G 17 47° 100% - - 47° 46.9° 46° - - 895.0
4/25 4:00am 245 10 G 16 47° 100% - - 47° 46.9° 46° - - 895.0
4/25 3:50am 243 9 G 15 46° 100% - - 47° 46.9° 46° - - 895.0
4/25 3:40am 244 11 G 20 47° 100% - - 47° 46.9° 46° - - 895.0
4/25 3:30am 246 10 G 21 47° 100% - - 47° 46.9° 46° - - 895.0
4/25 3:20am 243 10 G 15 47° 100% - - 47° 46.9° 46° - - 895.0
4/25 3:10am 241 12 G 18 47° 100% - - 47° 46.9° 46° - - 895.0
4/25 3:00am 243 9 G 16 47° 100% - - 47° 46.9° 46° - - 895.0
4/25 2:50am 245 9 G 15 47° 100% - - 47° 46.9° 46° - - 895.0
4/25 2:40am 243 10 G 17 47° 100% - - 47° 46.9° 46° - - 895.0
4/25 2:30am 237 10 G 17 46° 100% - - 46° 46.9° 46° - - 895.0
4/25 2:20am 240 8 G 16 46° 100% - - 46° 46.9° 46° - - 895.0
4/25 2:10am 241 9 G 16 46° 100% - - 46° 46.9° 46° - - 895.0
4/25 2:00am 238 10 G 19 46° 100% - - 46° 46.9° 46° - - 895.0
4/25 1:50am 241 10 G 18 46° 100% - - 46° 46.9° 46.2° - - 894.0
4/25 1:40am 245 8 G 15 47° 100% - - 47° 46.9° 46.2° - - 894.0
4/25 1:30am 248 9 G 15 47° 100% - - 47° 46.9° 46.2° - - 894.0
4/25 1:20am 249 8 G 13 47° 100% - - 47° 46.8° 46.2° - - 894.0
4/25 1:10am 245 8 G 14 47° 100% - - 47° 46.8° 46.2° - - 894.0
4/25 1:00am 248 8 G 14 46° 100% - - 46° 46.8° 46.2° - - 894.0
4/25 12:50am 251 8 G 14 46° 100% - - 46° 46.8° 46.3° - - 895.0
4/25 12:40am 242 8 G 13 47° 100% - - 47° 46.8° 46.3° - - 895.0
4/25 12:30am 240 8 G 15 47° 100% - - 47° 46.8° 46.3° - - 895.0
4/25 12:20am 246 8 G 15 47° 100% - - 47° 46.8° 46.3° - - 895.0
4/25 12:10am 246 9 G 16 47° 100% - - 47° 46.8° 46.4° - - 895.0
4/25 12:00am 250 9 G 16 47° 100% - - 47° 65.6° 43.3° - - 894.0
4/24 11:50pm 251 8 G 16 47° 100% - - 47° 65.6° 43.3° - - 894.0
4/24 11:40pm 245 7 G 14 47° 100% - - 47° 65.6° 43.3° - - 894.0
4/24 11:30pm 242 9 G 14 47° 100% - - 47° 65.6° 43.3° - - 895.0
4/24 11:20pm 243 8 G 13 47° 100% - - 47° 65.6° 43.3° - - 895.0
4/24 11:10pm 248 6 G 12 47° 100% - - 47° 65.6° 43.3° - - 895.0
4/24 11:00pm 253 5 G 8 46° 100% - - 46° 65.6° 43.3° - - 895.0
4/24 10:50pm 248 5 G 9 47° 100% - - 47° 65.6° 43.3° - - 894.0
4/24 10:40pm 253 5 G 9 47° 100% - - 47° 65.6° 43.3° - - 894.0
4/24 10:30pm 256 7 G 11 47° 100% - - 47° 65.6° 43.3° - - 894.0
4/24 10:20pm 252 8 G 14 48° 100% - - 48° 65.6° 43.3° - - 894.0
4/24 10:10pm 254 8 G 12 48° 100% - - 48° 65.6° 43.3° - - 894.0
4/24 10:00pm 263 8 G 15 49° 100% - - 49° 65.6° 43.3° - - 894.0
4/24 9:50pm 261 8 G 17 49° 100% - - 49° 65.6° 43.3° - - 894.0
4/24 9:40pm 253 9 G 18 49° 100% - - 49° 65.6° 43.3° - - 895.0
4/24 9:30pm 262 10 G 18 49° 100% - - 49° 65.6° 43.3° - - 895.0
4/24 9:20pm 264 11 G 18 49° 100% - - 49° 65.6° 43.3° - - 895.0
4/24 9:10pm 269 12 G 20 49° 100% - - 49° 65.6° 43.3° - - 895.0
4/24 9:00pm 267 12 G 18 49° 100% - - 50° 65.6° 43.3° - - 895.0
4/24 8:50pm 264 11 G 18 50° 100% - - 50° 65.6° 43.3° - - 894.0
4/24 8:40pm 261 11 G 17 50° 100% - - 50° 65.6° 43.3° - - 894.0
4/24 8:30pm 262 10 G 21 50° 100% - - 50° 65.6° 43.3° - - 894.0
4/24 8:20pm 260 10 G 16 50° 97% - - 50° 65.6° 43.3° - - 892.0
4/24 8:10pm 253 9 G 17 51° 92% - - 49° 65.6° 43.3° - - 891.0
4/24 8:00pm 255 10 G 17 51° 91% - - 49° 65.6° 43.3° - - 890.0
4/24 7:50pm 253 10 G 17 51° 89% - - 48° 65.6° 43.3° - - 889.0
4/24 7:40pm 250 10 G 16 52° 85% - - 47° 65.6° 43.3° - - 888.0
4/24 7:30pm 250 10 G 18 52° 82% - - 47° 65.6° 43.3° - - 887.0
4/24 7:20pm 255 11 G 22 53° 80% - - 47° 65.6° 43.3° - - 886.0
4/24 7:10pm 256 9 G 18 54° 77% - - 47° 65.6° 43.3° - - 885.0
4/24 7:00pm 256 11 G 17 55° 74% - - 47° 65.6° 43.3° - - 884.0
4/24 6:50pm 256 11 G 21 55° 71% - - 46° 65.6° 43.3° - - 883.0
4/24 6:40pm 253 11 G 22 56° 68% - - 46° 65.6° 43.3° - - 882.0
4/24 6:30pm 260 11 G 20 57° 65% - - 45° 65.6° 43.3° - - 881.0
4/24 6:20pm 265 11 G 19 58° 61% - - 45° 65.6° 43.3° - - 879.0
4/24 6:10pm 267 11 G 23 59° 56% - - 43° 65.6° 43.3° - - 877.0
4/24 6:00pm 268 13 G 22 59° 53% - - 42° 65.6° 43.3° - - 876.0